createdAt,value
2019-02-19T00:02:02.712Z,44.97
2019-02-19T00:04:32.093Z,55.27
2019-02-19T00:07:00.929Z,53.07
2019-02-19T00:09:29.825Z,51.93
2019-02-19T00:11:58.805Z,47.17
2019-02-19T00:14:28.832Z,46.10
2019-02-19T00:16:58.695Z,48.37
2019-02-19T00:19:27.486Z,50.33
2019-02-19T00:21:56.279Z,51.50
2019-02-19T00:24:25.165Z,48.57
2019-02-19T00:26:54.500Z,49.40
2019-02-19T00:29:24.774Z,48.33
2019-02-19T00:31:53.611Z,49.63
2019-02-19T00:34:23.103Z,58.60
2019-02-19T00:36:52.939Z,45.37
2019-02-19T00:39:21.774Z,48.77
2019-02-19T00:41:50.569Z,48.57
2019-02-19T00:44:19.407Z,46.70
2019-02-19T00:46:48.156Z,49.30
2019-02-19T00:49:17.616Z,46.37
2019-02-19T00:51:46.399Z,43.50
2019-02-19T00:54:16.450Z,54.67
2019-02-19T00:56:46.329Z,59.27
2019-02-19T00:59:15.267Z,52.47
2019-02-19T01:01:44.597Z,52.23
2019-02-19T01:04:13.495Z,54.70
2019-02-19T01:06:42.430Z,55.33
2019-02-19T01:09:12.375Z,39.53
2019-02-19T01:11:41.198Z,54.30
2019-02-19T01:14:10.153Z,48.93
2019-02-19T01:16:40.243Z,58.07
2019-02-19T01:19:09.019Z,58.23
2019-02-19T01:21:37.909Z,55.13
2019-02-19T01:24:06.688Z,65.00
2019-02-19T01:26:35.523Z,53.60
2019-02-19T01:29:04.367Z,55.07
2019-02-19T01:31:33.176Z,51.20
2019-02-19T01:34:02.050Z,50.77
2019-02-19T01:36:31.439Z,51.73
2019-02-19T01:39:00.578Z,58.03
2019-02-19T01:41:29.366Z,42.50
2019-02-19T01:43:58.754Z,55.73
2019-02-19T01:46:27.548Z,56.97
2019-02-19T01:48:58.951Z,42.57
2019-02-19T01:51:27.740Z,53.63
2019-02-19T01:53:57.974Z,45.60
2019-02-19T01:56:26.887Z,41.27
2019-02-19T01:58:55.723Z,40.63
2019-02-19T02:01:25.322Z,45.53
2019-02-19T02:03:54.731Z,40.50
2019-02-19T02:06:23.523Z,38.13
2019-02-19T02:08:53.639Z,41.20
2019-02-19T02:11:22.458Z,37.17
2019-02-19T02:13:51.959Z,40.80
2019-02-19T02:16:21.722Z,38.93
2019-02-19T02:18:51.407Z,35.33
2019-02-19T02:21:20.258Z,38.47
2019-02-19T02:23:49.248Z,45.20
2019-02-19T02:26:18.039Z,44.13
2019-02-19T02:28:47.894Z,54.80
2019-02-19T02:31:16.947Z,37.13
2019-02-19T02:33:45.730Z,46.13
2019-02-19T02:36:14.579Z,42.27
2019-02-19T02:38:43.407Z,46.17
2019-02-19T02:41:13.043Z,50.13
2019-02-19T02:43:42.130Z,46.50
2019-02-19T02:46:11.219Z,47.73
2019-02-19T02:48:40.080Z,50.63
2019-02-19T02:51:08.951Z,48.90
2019-02-19T02:53:39.044Z,42.57
2019-02-19T02:56:07.895Z,50.93
2019-02-19T02:58:36.779Z,44.13
2019-02-19T03:01:05.686Z,46.20
2019-02-19T03:03:34.571Z,45.07
2019-02-19T03:06:10.610Z,44.93
2019-02-19T03:08:40.017Z,45.50
2019-02-19T03:11:08.837Z,43.00
2019-02-19T03:13:38.840Z,40.23
2019-02-19T03:16:07.646Z,53.67
2019-02-19T03:18:36.445Z,51.40
2019-02-19T03:21:05.322Z,40.63
2019-02-19T03:23:34.741Z,39.63
2019-02-19T03:26:05.297Z,42.83
2019-02-19T03:28:34.005Z,41.23
2019-02-19T03:31:02.912Z,43.83
2019-02-19T03:33:31.993Z,41.50
2019-02-19T03:36:01.136Z,33.73
2019-02-19T03:38:30.488Z,45.23
2019-02-19T03:40:59.275Z,46.13
2019-02-19T03:43:28.589Z,39.00
2019-02-19T03:45:59.322Z,38.93
2019-02-19T03:48:28.739Z,38.57
2019-02-19T03:50:58.228Z,40.03
2019-02-19T03:53:27.030Z,39.27
2019-02-19T03:55:55.925Z,36.87
2019-02-19T03:58:25.939Z,31.83
2019-02-19T04:00:54.726Z,32.93
2019-02-19T04:03:23.554Z,41.03
2019-02-19T04:05:52.355Z,37.23
2019-02-19T04:08:22.241Z,40.67
2019-02-19T04:10:51.065Z,38.33
2019-02-19T04:13:19.867Z,43.03
2019-02-19T04:15:48.788Z,36.80
2019-02-19T04:18:18.440Z,31.40
2019-02-19T04:20:48.878Z,44.63
2019-02-19T04:23:18.996Z,36.20
2019-02-19T04:25:48.818Z,34.57
2019-02-19T04:28:18.687Z,44.03
2019-02-19T04:30:49.296Z,34.50
2019-02-19T04:33:18.211Z,31.73
2019-02-19T04:35:47.080Z,40.37
2019-02-19T04:38:16.648Z,38.40
2019-02-19T04:40:46.174Z,34.27
2019-02-19T04:43:15.928Z,37.43
2019-02-19T04:45:44.703Z,49.83
2019-02-19T04:48:13.500Z,36.73
2019-02-19T04:50:42.322Z,39.27
2019-02-19T04:53:11.157Z,38.90
2019-02-19T04:55:40.055Z,39.40
2019-02-19T04:58:08.990Z,36.23
2019-02-19T05:00:39.041Z,41.33
2019-02-19T05:03:08.546Z,44.27
2019-02-19T05:05:38.187Z,41.93
2019-02-19T05:08:08.237Z,33.80
2019-02-19T05:10:37.493Z,42.43
2019-02-19T05:13:06.257Z,37.73
2019-02-19T05:15:36.588Z,39.20
2019-02-19T05:18:05.330Z,40.03
2019-02-19T05:20:34.731Z,39.13
2019-02-19T05:23:04.247Z,37.53
2019-02-19T05:25:33.136Z,45.60
2019-02-19T05:28:01.964Z,36.80
2019-02-19T05:30:30.971Z,50.00
2019-02-19T05:32:59.750Z,40.23
2019-02-19T05:35:28.715Z,36.67
2019-02-19T05:37:58.707Z,43.07
2019-02-19T05:40:27.530Z,44.73
2019-02-19T05:42:57.591Z,38.13
2019-02-19T05:45:26.477Z,39.70
2019-02-19T05:47:55.252Z,38.97
2019-02-19T05:50:24.106Z,38.63
2019-02-19T05:52:52.888Z,40.17
2019-02-19T05:55:22.400Z,40.00
2019-02-19T05:57:57.817Z,38.07
2019-02-19T06:00:27.295Z,34.80
2019-02-19T06:02:56.148Z,42.27
2019-02-19T06:05:25.491Z,31.87
2019-02-19T06:07:54.887Z,39.17
2019-02-19T06:10:23.639Z,38.40
2019-02-19T06:12:53.296Z,36.97
2019-02-19T06:15:23.854Z,35.43
2019-02-19T06:17:53.200Z,37.70
2019-02-19T06:20:22.060Z,41.20
2019-02-19T06:22:50.926Z,45.97
2019-02-19T06:25:19.729Z,34.50
2019-02-19T06:27:48.535Z,40.57
2019-02-19T06:30:20.639Z,44.83
2019-02-19T06:32:50.416Z,37.83
2019-02-19T06:35:19.771Z,37.83
2019-02-19T06:37:48.579Z,36.03
2019-02-19T06:40:26.431Z,42.00
2019-02-19T06:42:55.298Z,37.70
2019-02-19T06:45:24.122Z,34.97
2019-02-19T06:47:53.696Z,39.17
2019-02-19T06:50:23.206Z,35.07
2019-02-19T06:52:52.117Z,47.23
2019-02-19T06:55:22.326Z,30.90
2019-02-19T06:57:52.072Z,34.17
2019-02-19T07:00:21.515Z,38.90
2019-02-19T07:02:55.309Z,34.17
2019-02-19T07:05:25.000Z,43.70
2019-02-19T07:07:54.402Z,40.97
2019-02-19T07:10:23.264Z,37.77
2019-02-19T07:12:52.126Z,29.43
2019-02-19T07:15:24.179Z,53.93
2019-02-19T07:17:53.002Z,40.50
2019-02-19T07:20:21.897Z,25.53
2019-02-19T07:22:50.683Z,43.57
2019-02-19T07:25:19.540Z,38.73
2019-02-19T07:27:48.470Z,37.60
2019-02-19T07:30:17.352Z,44.03
2019-02-19T07:32:46.147Z,36.47
2019-02-19T07:35:15.015Z,36.00
2019-02-19T07:37:44.001Z,37.80
2019-02-19T07:40:12.847Z,33.07
2019-02-19T07:42:41.668Z,35.50
2019-02-19T07:45:10.776Z,31.53
2019-02-19T07:47:39.659Z,27.93
2019-02-19T07:50:09.256Z,37.00
2019-02-19T07:52:38.066Z,33.73
2019-02-19T07:55:07.968Z,31.47
2019-02-19T07:57:36.827Z,30.83
2019-02-19T08:00:05.889Z,33.30
2019-02-19T08:02:35.544Z,24.63
2019-02-19T08:05:06.760Z,42.90
2019-02-19T08:07:35.723Z,40.40
2019-02-19T08:10:06.306Z,40.77
2019-02-19T08:12:35.185Z,25.37
2019-02-19T08:15:04.284Z,30.53
2019-02-19T08:17:33.709Z,26.20
2019-02-19T08:20:02.022Z,34.40
2019-02-19T08:22:32.334Z,32.23
2019-02-19T08:25:01.662Z,37.13
2019-02-19T08:27:30.507Z,31.30
2019-02-19T08:29:59.998Z,34.07
2019-02-19T08:32:28.828Z,29.63
2019-02-19T08:34:57.638Z,21.03
2019-02-19T08:37:26.481Z,37.37
2019-02-19T08:39:57.065Z,35.07
2019-02-19T08:42:26.219Z,31.40
2019-02-19T08:44:56.068Z,32.23
2019-02-19T08:47:24.871Z,26.33
2019-02-19T08:49:53.798Z,33.30
2019-02-19T08:52:22.617Z,32.47
2019-02-19T08:54:51.470Z,32.10
2019-02-19T08:57:20.320Z,29.17
2019-02-19T08:59:50.983Z,36.40
2019-02-19T09:02:20.787Z,27.50
2019-02-19T09:04:50.587Z,36.70
2019-02-19T09:07:19.448Z,38.73
2019-02-19T09:09:48.268Z,45.63
2019-02-19T09:12:17.068Z,30.40
2019-02-19T09:14:45.875Z,38.13
2019-02-19T09:17:14.691Z,41.80
2019-02-19T09:19:43.775Z,42.20
2019-02-19T09:22:12.586Z,35.33
2019-02-19T09:24:41.442Z,29.87
2019-02-19T09:27:10.235Z,31.80
2019-02-19T09:29:39.067Z,39.93
2019-02-19T09:32:07.898Z,38.07
2019-02-19T09:34:36.733Z,39.20
2019-02-19T09:37:05.556Z,41.23
2019-02-19T09:39:35.247Z,36.07
2019-02-19T09:42:04.061Z,33.07
2019-02-19T09:44:35.061Z,33.73
2019-02-19T09:47:05.066Z,30.13
2019-02-19T09:49:34.052Z,38.80
2019-02-19T09:52:02.970Z,32.13
2019-02-19T09:54:31.786Z,31.77
2019-02-19T09:57:01.839Z,33.67
2019-02-19T09:59:30.659Z,38.10
2019-02-19T10:02:00.167Z,30.90
2019-02-19T10:04:29.866Z,30.67
2019-02-19T10:06:59.214Z,37.57
2019-02-19T10:09:28.057Z,34.67
2019-02-19T10:11:57.515Z,39.73
2019-02-19T10:14:27.380Z,30.10
2019-02-19T10:16:57.682Z,28.10
2019-02-19T10:19:26.515Z,38.10
2019-02-19T10:21:55.350Z,28.87
2019-02-19T10:24:26.126Z,42.23
2019-02-19T10:26:54.931Z,30.03
2019-02-19T10:29:24.663Z,26.23
2019-02-19T10:31:53.501Z,35.97
2019-02-19T10:34:24.154Z,40.73
2019-02-19T10:36:52.959Z,28.00
2019-02-19T10:39:22.288Z,37.17
2019-02-19T10:41:52.961Z,34.43
2019-02-19T10:44:20.079Z,29.97
2019-02-19T10:46:53.378Z,32.03
2019-02-19T10:49:24.539Z,34.70
2019-02-19T10:51:54.597Z,29.03
2019-02-19T10:54:23.467Z,21.80
2019-02-19T10:56:52.312Z,29.83
2019-02-19T10:59:23.022Z,25.00
2019-02-19T11:01:53.078Z,31.47
2019-02-19T11:04:22.223Z,34.50
2019-02-19T11:06:51.956Z,32.77
2019-02-19T11:09:21.220Z,31.47
2019-02-19T11:11:50.043Z,30.07
2019-02-19T11:14:19.443Z,26.37
2019-02-19T11:16:48.265Z,23.07
2019-02-19T11:19:17.100Z,30.17
2019-02-19T11:21:45.904Z,28.10
2019-02-19T11:24:14.824Z,24.10
2019-02-19T11:26:44.684Z,19.77
2019-02-19T11:29:13.779Z,22.87
2019-02-19T11:31:42.622Z,22.10
2019-02-19T11:34:12.644Z,24.63
2019-02-19T11:36:41.426Z,20.23
2019-02-19T11:39:11.084Z,19.37
2019-02-19T11:41:42.639Z,21.73
2019-02-19T11:44:11.494Z,20.83
2019-02-19T11:46:40.318Z,24.60
2019-02-19T11:49:09.297Z,24.70
2019-02-19T11:51:38.083Z,20.20
2019-02-19T11:54:06.895Z,26.67
2019-02-19T11:56:35.722Z,23.37
2019-02-19T11:59:05.300Z,21.97
2019-02-19T12:01:34.223Z,25.77
2019-02-19T12:04:03.468Z,24.80
2019-02-19T12:06:32.316Z,31.30
2019-02-19T12:09:01.114Z,19.03
2019-02-19T12:11:30.834Z,22.03
2019-02-19T12:14:01.459Z,17.90
2019-02-19T12:16:30.328Z,24.50
2019-02-19T12:19:10.396Z,28.13
2019-02-19T12:21:39.262Z,17.83
2019-02-19T12:24:08.154Z,24.53
2019-02-19T12:26:36.983Z,19.83
2019-02-19T12:29:06.992Z,28.90
2019-02-19T12:31:36.266Z,20.53
2019-02-19T12:34:05.172Z,24.03
2019-02-19T12:36:33.989Z,15.07
2019-02-19T12:39:02.790Z,17.07
2019-02-19T12:41:32.044Z,16.57
2019-02-19T12:44:03.239Z,25.63
2019-02-19T12:46:32.070Z,19.03
2019-02-19T12:49:01.498Z,16.33
2019-02-19T12:51:31.800Z,17.87
2019-02-19T12:54:01.752Z,17.33
2019-02-19T12:56:30.599Z,27.87
2019-02-19T12:59:00.022Z,17.63
2019-02-19T13:01:28.840Z,19.13
2019-02-19T13:04:01.757Z,16.20
2019-02-19T13:06:31.970Z,21.53
2019-02-19T13:09:01.966Z,14.10
2019-02-19T13:11:33.910Z,19.13
2019-02-19T13:14:04.332Z,17.27
2019-02-19T13:16:33.111Z,20.60
2019-02-19T13:19:03.958Z,15.80
2019-02-19T13:21:33.060Z,17.73
2019-02-19T13:24:02.949Z,15.10
2019-02-19T13:26:34.137Z,10.57
2019-02-19T13:29:02.988Z,15.73
2019-02-19T13:31:31.863Z,12.73
2019-02-19T13:34:03.711Z,11.43
2019-02-19T13:36:34.472Z,14.33
2019-02-19T13:39:05.663Z,15.67
2019-02-19T13:41:37.043Z,17.73
2019-02-19T13:44:06.488Z,15.43
2019-02-19T13:46:35.268Z,15.50
2019-02-19T13:49:11.840Z,16.80
2019-02-19T13:51:35.144Z,18.47
2019-02-19T13:55:07.104Z,14.10
2019-02-19T13:57:39.012Z,13.47
2019-02-19T14:00:08.442Z,17.27
2019-02-19T14:02:37.992Z,18.53
2019-02-19T14:05:08.573Z,9.60
2019-02-19T14:07:36.442Z,14.07
2019-02-19T14:10:05.727Z,14.70
2019-02-19T14:12:34.531Z,12.73
2019-02-19T14:15:07.539Z,13.43
2019-02-19T14:17:37.943Z,13.13
2019-02-19T14:20:11.015Z,17.30
2019-02-19T14:22:44.015Z,17.50
2019-02-19T14:25:35.455Z,18.17
2019-02-19T14:28:40.599Z,16.67
2019-02-19T14:31:19.812Z,15.77
2019-02-19T14:33:55.217Z,13.23
2019-02-19T14:36:31.163Z,15.47
2019-02-19T14:39:05.415Z,12.33
2019-02-19T14:41:41.584Z,13.93
2019-02-19T14:44:15.529Z,13.57
2019-02-19T14:46:59.684Z,18.43
2019-02-19T14:51:36.095Z,12.80
2019-02-19T14:54:18.109Z,15.10
2019-02-19T14:56:55.965Z,17.97
2019-02-19T15:00:28.461Z,13.23
2019-02-19T15:03:02.309Z,17.63
2019-02-19T15:05:36.161Z,10.67
2019-02-19T15:08:10.927Z,17.23
2019-02-19T15:12:53.923Z,16.47
2019-02-19T15:16:01.791Z,15.03
2019-02-19T15:19:39.658Z,13.60
2019-02-19T15:22:14.583Z,17.13
2019-02-19T15:24:49.539Z,9.47
2019-02-19T15:27:53.861Z,12.10
2019-02-19T15:31:31.607Z,8.77
2019-02-19T15:34:06.331Z,22.37
2019-02-19T15:36:40.158Z,13.90
2019-02-19T15:39:15.149Z,13.77
2019-02-19T15:41:49.898Z,10.27
2019-02-19T15:44:22.879Z,10.53
2019-02-19T15:46:59.889Z,18.83
2019-02-19T15:49:34.810Z,10.13
2019-02-19T15:52:07.808Z,13.27
2019-02-19T15:56:49.454Z,11.23
2019-02-19T15:59:26.446Z,7.73
2019-02-19T16:02:01.062Z,9.87
2019-02-19T16:04:44.669Z,19.93
2019-02-19T16:07:23.540Z,14.67
2019-02-19T16:09:56.595Z,14.10
2019-02-19T16:12:38.407Z,11.60
2019-02-19T16:15:12.748Z,12.43
2019-02-19T16:17:46.831Z,10.00
2019-02-19T16:20:32.742Z,11.93
2019-02-19T16:23:07.782Z,8.83
2019-02-19T16:25:46.087Z,16.07
2019-02-19T16:28:22.687Z,15.40
2019-02-19T16:30:56.959Z,15.73
2019-02-19T16:33:30.979Z,15.20
2019-02-19T16:36:07.874Z,12.57
2019-02-19T16:38:43.884Z,13.00
2019-02-19T16:41:19.451Z,17.63
2019-02-19T16:43:55.723Z,21.57
2019-02-19T16:46:41.632Z,15.03
2019-02-19T16:49:47.060Z,13.07
2019-02-19T16:52:23.469Z,23.80
2019-02-19T16:54:59.444Z,13.03
2019-02-19T16:57:34.017Z,19.33
2019-02-19T17:00:08.537Z,16.33
2019-02-19T17:03:17.908Z,17.73
2019-02-19T17:05:55.772Z,19.53
2019-02-19T17:09:31.651Z,17.33
2019-02-19T17:12:08.666Z,15.33
2019-02-19T17:14:42.987Z,18.20
2019-02-19T17:17:28.986Z,18.93
2019-02-19T17:20:01.987Z,13.33
2019-02-19T17:23:43.830Z,17.87
2019-02-19T17:26:18.648Z,16.87
2019-02-19T17:28:51.731Z,29.23
2019-02-19T17:31:25.551Z,23.70
2019-02-19T17:33:59.062Z,22.50
2019-02-19T17:36:32.916Z,21.07
2019-02-19T17:39:07.738Z,21.70
2019-02-19T17:41:43.336Z,21.93
2019-02-19T17:44:17.971Z,30.53
2019-02-19T17:46:54.958Z,18.07
2019-02-19T17:49:29.386Z,30.60
2019-02-19T17:52:04.949Z,22.87
2019-02-19T17:54:41.864Z,26.77
2019-02-19T17:57:17.870Z,22.73
2019-02-19T18:00:55.584Z,25.93
2019-02-19T18:03:32.153Z,22.57
2019-02-19T18:06:06.258Z,20.93
2019-02-19T18:09:11.734Z,24.90
2019-02-19T18:13:50.899Z,21.77
2019-02-19T18:16:24.916Z,24.60
2019-02-19T18:18:54.831Z,23.93
2019-02-19T18:21:23.700Z,22.47
2019-02-19T18:23:52.481Z,31.87
2019-02-19T18:26:21.379Z,29.73
2019-02-19T18:28:51.126Z,28.33
2019-02-19T18:31:19.979Z,32.77
2019-02-19T18:33:48.767Z,29.93
2019-02-19T18:36:17.575Z,31.37
2019-02-19T18:38:46.386Z,27.20
2019-02-19T18:41:15.201Z,21.03
2019-02-19T18:43:44.096Z,19.03
2019-02-19T18:46:12.925Z,23.93
2019-02-19T18:48:41.791Z,22.37
2019-02-19T18:51:10.649Z,31.33
2019-02-19T18:53:39.789Z,22.17
2019-02-19T18:56:09.678Z,29.20
2019-02-19T18:58:38.458Z,22.40
2019-02-19T19:01:08.666Z,24.63
2019-02-19T19:03:36.479Z,29.73
2019-02-19T19:06:05.314Z,24.17
2019-02-19T19:08:34.208Z,25.83
2019-02-19T19:11:03.892Z,28.90
2019-02-19T19:13:33.303Z,20.63
2019-02-19T19:16:02.101Z,24.97
2019-02-19T19:18:31.528Z,21.10
2019-02-19T19:21:07.994Z,26.73
2019-02-19T19:23:30.877Z,22.33
2019-02-19T19:26:01.414Z,33.27
2019-02-19T19:28:30.977Z,27.17
2019-02-19T19:30:59.800Z,31.87
2019-02-19T19:33:28.588Z,33.13
2019-02-19T19:35:58.420Z,51.13
2019-02-19T19:38:27.266Z,40.00
2019-02-19T19:40:56.095Z,28.17
2019-02-19T19:43:25.029Z,21.97
2019-02-19T19:45:54.466Z,20.67
2019-02-19T19:48:24.190Z,19.30
2019-02-19T19:50:53.877Z,23.90
2019-02-19T19:53:22.713Z,29.93
2019-02-19T19:55:51.599Z,24.93
2019-02-19T19:58:21.912Z,27.73
2019-02-19T20:00:50.766Z,22.27
2019-02-19T20:03:19.568Z,23.07
2019-02-19T20:05:48.372Z,26.03
2019-02-19T20:08:19.738Z,22.50
2019-02-19T20:10:48.826Z,24.87
2019-02-19T20:13:17.659Z,23.10
2019-02-19T20:15:46.414Z,19.63
2019-02-19T20:18:15.295Z,21.37
2019-02-19T20:20:44.207Z,29.20
2019-02-19T20:23:14.148Z,25.33
2019-02-19T20:25:45.243Z,19.63
2019-02-19T20:28:15.223Z,19.67
2019-02-19T20:30:44.039Z,21.70
2019-02-19T20:33:15.399Z,23.33
2019-02-19T20:35:44.268Z,25.07
2019-02-19T20:38:13.697Z,19.73
2019-02-19T20:40:42.560Z,24.50
2019-02-19T20:43:12.501Z,30.97
2019-02-19T20:45:42.943Z,20.53
2019-02-19T20:48:11.748Z,32.40
2019-02-19T20:50:40.680Z,25.90
2019-02-19T20:53:10.407Z,28.33
2019-02-19T20:55:39.925Z,26.80
2019-02-19T20:58:08.750Z,25.60
2019-02-19T21:00:39.148Z,30.23
2019-02-19T21:03:11.053Z,30.43
2019-02-19T21:05:40.338Z,25.30
2019-02-19T21:08:09.327Z,18.93
2019-02-19T21:10:38.770Z,28.37
2019-02-19T21:13:08.892Z,21.77
2019-02-19T21:15:37.806Z,16.17
2019-02-19T21:18:06.629Z,27.87
2019-02-19T21:20:36.010Z,24.17
2019-02-19T21:23:04.879Z,21.77
2019-02-19T21:25:34.238Z,15.63
2019-02-19T21:28:03.658Z,20.80
2019-02-19T21:30:32.449Z,15.73
2019-02-19T21:33:01.328Z,25.07
2019-02-19T21:35:30.126Z,25.50
2019-02-19T21:38:00.288Z,27.20
2019-02-19T21:40:29.524Z,23.90
2019-02-19T21:42:58.372Z,20.43
2019-02-19T21:45:27.807Z,21.57
2019-02-19T21:47:56.586Z,17.07
2019-02-19T21:50:26.070Z,21.27
2019-02-19T21:52:55.426Z,20.70
2019-02-19T21:55:24.262Z,13.27
2019-02-19T21:57:53.086Z,22.57
2019-02-19T22:00:22.803Z,22.07
2019-02-19T22:02:52.525Z,18.90
2019-02-19T22:05:21.352Z,18.60
2019-02-19T22:07:50.180Z,24.17
2019-02-19T22:10:18.990Z,22.07
2019-02-19T22:12:48.287Z,31.97
2019-02-19T22:15:17.907Z,24.83
2019-02-19T22:17:46.701Z,24.80
2019-02-19T22:20:19.668Z,33.30
2019-02-19T22:22:48.565Z,24.30
2019-02-19T22:25:17.364Z,21.80
2019-02-19T22:27:46.144Z,21.13
2019-02-19T22:30:15.019Z,19.43
2019-02-19T22:32:43.882Z,26.77
2019-02-19T22:35:12.662Z,21.17
2019-02-19T22:37:42.315Z,22.70
2019-02-19T22:40:11.173Z,31.17
2019-02-19T22:42:39.992Z,24.90
2019-02-19T22:45:08.823Z,18.87
2019-02-19T22:47:37.709Z,23.90
2019-02-19T22:50:07.102Z,16.50
2019-02-19T22:52:35.383Z,21.47
2019-02-19T22:55:27.668Z,18.83
2019-02-19T22:57:57.164Z,14.67
2019-02-19T23:00:32.079Z,21.93
2019-02-19T23:03:01.450Z,19.40
2019-02-19T23:05:30.262Z,22.57
2019-02-19T23:07:59.711Z,22.77
2019-02-19T23:10:29.236Z,20.60
2019-02-19T23:12:58.096Z,23.33
2019-02-19T23:15:26.955Z,16.43
2019-02-19T23:17:55.726Z,27.43
2019-02-19T23:20:24.519Z,21.57
2019-02-19T23:22:53.366Z,25.93
2019-02-19T23:25:22.175Z,26.97
2019-02-19T23:27:51.019Z,23.33
2019-02-19T23:30:19.830Z,27.90
2019-02-19T23:32:48.666Z,26.83
2019-02-19T23:35:27.624Z,28.77
2019-02-19T23:37:56.845Z,20.70
2019-02-19T23:40:26.191Z,21.10
2019-02-19T23:42:54.983Z,16.37
2019-02-19T23:45:25.507Z,20.97
2019-02-19T23:47:54.602Z,15.93
2019-02-19T23:50:23.597Z,18.63
2019-02-19T23:52:52.387Z,25.97
2019-02-19T23:55:21.271Z,25.00
2019-02-19T23:57:51.573Z,26.13
